Time;durP1;ratioP1;P1;durP2;ratioP2;P2;SDS_P1;SDS_P2;PMS_P1;PMS_P2;Temp;Humidity;BMP_temperature;BMP_pressure;BME280_temperature;BME280_humidity;BME280_pressure;Samples;Min_cycle;Max_cycle;Signal;HPM_P1;HPM_P2
2022/04/23 00:02:02;;;;;;;;;;;;;;;;;;8387407;28;27444;-75
2022/04/23 00:06:02;;;;;;;;;;;;;;;;;;8388161;28;28563;-75
2022/04/23 00:10:02;;;;;;;;;;;;;;;;;;8381472;28;27272;-75
2022/04/23 00:14:04;;;;;;;;;;;;;;;;;;8385219;28;28919;-75
2022/04/23 00:18:04;;;;;;;;;;;;;;;;;;8384906;28;27588;-75
2022/04/23 00:22:04;;;;;;;;;;;;;;;;;;8387606;28;28636;-75
2022/04/23 00:26:04;;;;;;;;;;;;;;;;;;8378362;28;28374;-75
2022/04/23 00:30:04;;;;;;;;;;;;;;;;;;8381014;28;28195;-75
2022/04/23 00:34:04;;;;;;;;;;;;;;;;;;8378746;28;27113;-75
2022/04/23 00:38:05;;;;;;;;;;;;;;;;;;8382935;28;30243;-75
2022/04/23 00:42:08;;;;;;;;;;;;;;;;;;8377899;28;27383;-75
2022/04/23 00:46:09;;;;;;;;;;;;;;;;;;8377890;28;27157;-75
2022/04/23 00:50:11;;;;;;;;;;;;;;;;;;8378701;28;27993;-75
2022/04/23 00:54:11;;;;;;;;;;;;;;;;;;8377889;28;27698;-74
2022/04/23 00:58:11;;;;;;;;;;;;;;;;;;8377490;28;27419;-75
2022/04/23 01:02:12;;;;;;;;;;;;;;;;;;8376365;28;28005;-74
2022/04/23 01:06:13;;;;;;;;;;;;;;;;;;8373770;28;27769;-75
2022/04/23 01:10:13;;;;;;;;;;;;;;;;;;8387067;27;28282;-75
2022/04/23 01:14:15;;;;;;;;;;;;;;;;;;8377510;28;27428;-76
2022/04/23 01:18:16;;;;;;;;;;;;;;;;;;8377427;28;27550;-75
2022/04/23 01:22:16;;;;;;;;;;;;;;;;;;8379463;28;27585;-75
2022/04/23 01:26:17;;;;;;;;;;;;;;;;;;8374073;27;29365;-74
2022/04/23 01:30:17;;;;;;;;;;;;;;;;;;8372884;28;28303;-75
2022/04/23 01:34:17;;;;;;;;;;;;;;;;;;8371456;28;27779;-75
2022/04/23 01:38:17;;;;;;;;;;;;;;;;;;8380803;28;27730;-75
2022/04/23 01:42:18;;;;;;;;;;;;;;;;;;8383990;28;27679;-74
2022/04/23 01:46:18;;;;;;;;;;;;;;;;;;8380880;28;27341;-75
2022/04/23 01:50:18;;;;;;;;;;;;;;;;;;8385454;28;27601;-74
2022/04/23 01:54:18;;;;;;;;;;;;;;;;;;8382881;28;27863;-74
2022/04/23 01:58:19;;;;;;;;;;;;;;;;;;8386656;28;27172;-74
2022/04/23 02:02:19;;;;;;;;;;;;;;;;;;8381985;28;27914;-74
2022/04/23 02:06:19;;;;;;;;;;;;;;;;;;8393593;27;28234;-75
2022/04/23 02:10:20;;;;;;;;;;;;;;;;;;8377579;28;27422;-75
2022/04/23 02:14:20;;;;;;;;;;;;;;;;;;8378163;28;28011;-75
2022/04/23 02:18:21;;;;;;;;;;;;;;;;;;8382368;28;27305;-75
2022/04/23 02:22:21;;;;;;;;;;;;;;;;;;8381015;28;27682;-74
2022/04/23 02:26:22;;;;;;;;;;;;;;;;;;8376701;28;28924;-74
2022/04/23 02:30:22;;;;;;;;;;;;;;;;;;8379176;28;27914;-75
2022/04/23 02:34:22;;;;;;;;;;;;;;;;;;8380407;27;27465;-75
2022/04/23 02:38:22;;;;;;;;;;;;;;;;;;8377440;28;27562;-74
2022/04/23 02:42:22;;;;;;;;;;;;;;;;;;8380208;28;27982;-74
2022/04/23 02:46:24;;;;;;;;;;;;;;;;;;8383355;28;27419;-74
2022/04/23 02:50:25;;;;;;;;;;;;;;;;;;8389961;28;27228;-75
2022/04/23 02:54:25;;;;;;;;;;;;;;;;;;8377000;28;29473;-75
2022/04/23 02:58:26;;;;;;;;;;;;;;;;;;8378703;28;27188;-75
2022/04/23 03:02:28;;;;;;;;;;;;;;;;;;8399434;27;29264;-75
2022/04/23 03:06:30;;;;;;;;;;;;;;;;;;8381639;28;27438;-75
2022/04/23 03:10:30;;;;;;;;;;;;;;;;;;8379458;27;28393;-75
2022/04/23 03:14:31;;;;;;;;;;;;;;;;;;8380970;28;27493;-75
2022/04/23 03:18:31;;;;;;;;;;;;;;;;;;8392789;27;29014;-75
2022/04/23 03:22:31;;;;;;;;;;;;;;;;;;8383048;28;27818;-75
2022/04/23 03:26:31;;;;;;;;;;;;;;;;;;8383678;28;27278;-75
2022/04/23 03:30:31;;;;;;;;;;;;;;;;;;8388059;28;28131;-75
2022/04/23 03:34:31;;;;;;;;;;;;;;;;;;8383203;28;28086;-75
2022/04/23 03:38:35;;;;;;;;;;;;;;;;;;8382858;28;27629;-74
2022/04/23 03:42:35;;;;;;;;;;;;;;;;;;8386149;28;27304;-75
2022/04/23 03:51:11;;;;;;;;;;;;;;;;;;8387405;28;27983;-74
2022/04/23 03:55:11;;;;;;;;;;;;;;;;;;8384085;28;29388;-75
2022/04/23 03:59:12;;;;;;;;;;;;;;;;;;8379529;28;27475;-75
2022/04/23 04:03:12;;;;;;;;;;;;;;;;;;8386682;28;27133;-75
2022/04/23 04:07:12;;;;;;;;;;;;;;;;;;8381488;28;28443;-74
2022/04/23 04:11:12;;;;;;;;;;;;;;;;;;8383904;28;27098;-74
2022/04/23 04:15:15;;;;;;;;;;;;;;;;;;8383091;28;28751;-74
2022/04/23 04:19:17;;;;;;;;;;;;;;;;;;8383264;28;27244;-75
2022/04/23 04:23:17;;;;;;;;;;;;;;;;;;8381182;28;28218;-74
2022/04/23 04:27:17;;;;;;;;;;;;;;;;;;8386439;28;28545;-74
2022/04/23 04:35:47;;;;;;;;;;;;;;;;;;8382289;27;27553;-75
2022/04/23 04:39:47;;;;;;;;;;;;;;;;;;8383545;28;27822;-75
2022/04/23 04:43:47;;;;;;;;;;;;;;;;;;8382641;28;27783;-75
2022/04/23 04:47:47;;;;;;;;;;;;;;;;;;8383403;28;28339;-75
2022/04/23 04:51:50;;;;;;;;;;;;;;;;;;8383911;28;27415;-74
2022/04/23 04:55:50;;;;;;;;;;;;;;;;;;8380998;28;28637;-74
2022/04/23 04:59:50;;;;;;;;;;;;;;;;;;8384097;28;28573;-74
2022/04/23 05:03:51;;;;;;;;;;;;;;;;;;8381233;28;28302;-74
2022/04/23 05:07:51;;;;;;;;;;;;;;;;;;8386318;28;27162;-74
2022/04/23 05:11:52;;;;;;;;;;;;;;;;;;8380645;28;27374;-74
2022/04/23 05:15:52;;;;;;;;;;;;;;;;;;8380147;28;27422;-74
2022/04/23 05:19:52;;;;;;;;;;;;;;;;;;8384206;28;27848;-74
2022/04/23 05:23:52;;;;;;;;;;;;;;;;;;8381727;28;28329;-74
2022/04/23 05:27:52;;;;;;;;;;;;;;;;;;8385275;28;27337;-74
2022/04/23 05:31:52;;;;;;;;;;;;;;;;;;8380984;28;27672;-74
2022/04/23 05:35:52;;;;;;;;;;;;;;;;;;8382552;28;27369;-74
2022/04/23 05:39:52;;;;;;;;;;;;;;;;;;8385248;28;27348;-74
2022/04/23 05:44:07;;;;;;;;;;;;;;;;;;8384067;28;27626;-74
2022/04/23 05:48:08;;;;;;;;;;;;;;;;;;8384184;28;27905;-74
2022/04/23 05:52:08;;;;;;;;;;;;;;;;;;8381360;28;28036;-74
2022/04/23 05:56:08;;;;;;;;;;;;;;;;;;8378616;28;28216;-74
2022/04/23 06:00:08;;;;;;;;;;;;;;;;;;8384152;28;28330;-74
2022/04/23 06:04:11;;;;;;;;;;;;;;;;;;8379459;28;27610;-74
2022/04/23 06:08:11;;;;;;;;;;;;;;;;;;8382646;28;28343;-74
2022/04/23 06:12:11;;;;;;;;;;;;;;;;;;8380300;28;27878;-74
2022/04/23 06:16:11;;;;;;;;;;;;;;;;;;8376876;28;27446;-74
2022/04/23 06:20:11;;;;;;;;;;;;;;;;;;8385938;27;27133;-74
2022/04/23 06:24:11;;;;;;;;;;;;;;;;;;8377856;28;27425;-74
2022/04/23 06:28:11;;;;;;;;;;;;;;;;;;8386792;28;27457;-74
2022/04/23 06:32:11;;;;;;;;;;;;;;;;;;8389032;28;27443;-74
2022/04/23 06:40:47;;;;;;;;;;;;;;;;;;8356730;28;27575;-74
2022/04/23 06:44:48;;;;;;;;;;;;;;;;;;8380647;28;28314;-74
2022/04/23 06:48:50;;;;;;;;;;;;;;;;;;8383098;28;28184;-74
2022/04/23 06:52:50;;;;;;;;;;;;;;;;;;8389043;28;28650;-74
2022/04/23 06:56:51;;;;;;;;;;;;;;;;;;8383078;28;27531;-74
2022/04/23 07:00:52;;;;;;;;;;;;;;;;;;8392369;28;28452;-73
2022/04/23 07:04:52;;;;;;;;;;;;;;;;;;8387300;28;27412;-74
2022/04/23 07:08:52;;;;;;;;;;;;;;;;;;8391458;28;29755;-74
2022/04/23 07:12:53;;;;;;;;;;;;;;;;;;8393171;28;28416;-73
2022/04/23 07:16:53;;;;;;;;;;;;;;;;;;8382397;28;27239;-73
2022/04/23 07:20:54;;;;;;;;;;;;;;;;;;8391119;28;27389;-74
2022/04/23 07:24:54;;;;;;;;;;;;;;;;;;8392432;28;28438;-74
2022/04/23 07:28:54;;;;;;;;;;;;;;;;;;8414796;27;28453;-74
2022/04/23 07:32:54;;;;;;;;;;;;;;;;;;8390564;28;27871;-74
2022/04/23 07:41:33;;;;;;;;;;;;;;;;;;8386968;28;27222;-73
2022/04/23 07:45:33;;;;;;;;;;;;;;;;;;8383773;28;27486;-73
2022/04/23 07:49:34;;;;;;;;;;;;;;;;;;8387104;28;28259;-74
2022/04/23 07:53:34;;;;;;;;;;;;;;;;;;8390348;28;28133;-74
2022/04/23 07:57:35;;;;;;;;;;;;;;;;;;8386593;28;27136;-72
2022/04/23 08:01:35;;;;;;;;;;;;;;;;;;8385263;28;27326;-74
2022/04/23 08:05:35;;;;;;;;;;;;;;;;;;8381832;28;27867;-74
2022/04/23 08:09:39;;;;;;;;;;;;;;;;;;8396684;27;28488;-74
2022/04/23 08:13:39;;;;;;;;;;;;;;;;;;8378562;28;28231;-74
2022/04/23 08:17:39;;;;;;;;;;;;;;;;;;8413190;27;29323;-73
2022/04/23 08:21:39;;;;;;;;;;;;;;;;;;8385586;28;28103;-74
2022/04/23 08:25:39;;;;;;;;;;;;;;;;;;8386935;28;27209;-74
2022/04/23 08:33:58;;;;;;;;;;;;;;;;;;8373275;28;27647;-74
2022/04/23 08:37:59;;;;;;;;;;;;;;;;;;8400525;27;28467;-74
2022/04/23 08:41:59;;;;;;;;;;;;;;;;;;8379596;28;28489;-74
2022/04/23 08:45:59;;;;;;;;;;;;;;;;;;8416828;27;28566;-74
2022/04/23 08:49:59;;;;;;;;;;;;;;;;;;8386043;28;28350;-74
2022/04/23 08:53:59;;;;;;;;;;;;;;;;;;8388350;28;27410;-74
2022/04/23 08:58:00;;;;;;;;;;;;;;;;;;8412673;27;28339;-74
2022/04/23 09:02:01;;;;;;;;;;;;;;;;;;8379955;28;28228;-74
2022/04/23 09:06:01;;;;;;;;;;;;;;;;;;8379563;28;28002;-74
2022/04/23 09:10:01;;;;;;;;;;;;;;;;;;8389129;28;28232;-74
2022/04/23 09:14:01;;;;;;;;;;;;;;;;;;8387162;28;27493;-75
2022/04/23 09:26:39;;;;;;;;;;;;;;;;;;8385790;28;27249;-75
2022/04/23 09:30:39;;;;;;;;;;;;;;;;;;8390997;28;27271;-75
2022/04/23 09:34:39;;;;;;;;;;;;;;;;;;8389322;28;27988;-75
2022/04/23 09:38:40;;;;;;;;;;;;;;;;;;8391464;28;27157;-75
2022/04/23 09:42:40;;;;;;;;;;;;;;;;;;8388509;28;27271;-75
2022/04/23 09:46:40;;;;;;;;;;;;;;;;;;8383995;28;27115;-75
2022/04/23 09:50:40;;;;;;;;;;;;;;;;;;8387122;28;28675;-75
2022/04/23 09:54:40;;;;;;;;;;;;;;;;;;8385897;28;27858;-75
2022/04/23 09:58:40;;;;;;;;;;;;;;;;;;8390042;28;27264;-75
2022/04/23 10:02:40;;;;;;;;;;;;;;;;;;8385904;28;28776;-75
2022/04/23 10:06:42;;;;;;;;;;;;;;;;;;8415942;27;29357;-75
2022/04/23 10:10:42;;;;;;;;;;;;;;;;;;8394980;28;27445;-75
2022/04/23 10:14:43;;;;;;;;;;;;;;;;;;8387330;28;28233;-75
2022/04/23 10:18:44;;;;;;;;;;;;;;;;;;8385021;28;27580;-75
2022/04/23 10:22:44;;;;;;;;;;;;;;;;;;8384890;28;27268;-75
2022/04/23 10:26:44;;;;;;;;;;;;;;;;;;8387865;28;27847;-75
2022/04/23 10:30:47;;;;;;;;;;;;;;;;;;8390366;28;27221;-75
2022/04/23 10:34:50;;;;;;;;;;;;;;;;;;8390556;28;29346;-75
2022/04/23 10:38:53;;;;;;;;;;;;;;;;;;8396688;28;28274;-75
2022/04/23 10:42:54;;;;;;;;;;;;;;;;;;8388666;28;27617;-75
2022/04/23 10:46:56;;;;;;;;;;;;;;;;;;8390812;28;27600;-75
2022/04/23 10:50:56;;;;;;;;;;;;;;;;;;8394240;28;27439;-75
2022/04/23 10:54:58;;;;;;;;;;;;;;;;;;8393607;28;27363;-75
2022/04/23 10:59:01;;;;;;;;;;;;;;;;;;8391374;28;27632;-75
2022/04/23 11:03:01;;;;;;;;;;;;;;;;;;8388562;28;27519;-75
2022/04/23 11:15:39;;;;;;;;;;;;;;;;;;8383452;28;27845;-75
2022/04/23 11:19:42;;;;;;;;;;;;;;;;;;8386625;28;27527;-75
2022/04/23 11:23:45;;;;;;;;;;;;;;;;;;8392537;28;27666;-75
2022/04/23 11:27:48;;;;;;;;;;;;;;;;;;8394157;28;28363;-75
2022/04/23 11:31:48;;;;;;;;;;;;;;;;;;8391104;28;28312;-74
2022/04/23 11:35:49;;;;;;;;;;;;;;;;;;8389476;27;27411;-75
2022/04/23 11:39:49;;;;;;;;;;;;;;;;;;8392497;27;27776;-75
2022/04/23 11:43:49;;;;;;;;;;;;;;;;;;8387299;28;29542;-74
2022/04/23 11:47:51;;;;;;;;;;;;;;;;;;8383361;28;27401;-74
2022/04/23 11:51:52;;;;;;;;;;;;;;;;;;8384579;28;28194;-74
2022/04/23 11:55:52;;;;;;;;;;;;;;;;;;8390596;28;28360;-74
2022/04/23 11:59:52;;;;;;;;;;;;;;;;;;8385117;28;27308;-75
2022/04/23 12:03:52;;;;;;;;;;;;;;;;;;8387335;28;28271;-74
2022/04/23 12:07:52;;;;;;;;;;;;;;;;;;8386864;28;27340;-75
2022/04/23 12:11:52;;;;;;;;;;;;;;;;;;8388929;28;27386;-73
2022/04/23 12:15:53;;;;;;;;;;;;;;;;;;8386006;28;27331;-74
2022/04/23 12:19:55;;;;;;;;;;;;;;;;;;8382465;28;28605;-74
2022/04/23 12:23:56;;;;;;;;;;;;;;;;;;8404237;27;28657;-74
2022/04/23 12:27:56;;;;;;;;;;;;;;;;;;8392433;27;27269;-76
2022/04/23 12:40:44;;;;;;;;;;;;;;;;;;8389541;28;27366;-74
2022/04/23 12:44:46;;;;;;;;;;;;;;;;;;8395993;28;28354;-74
2022/04/23 12:48:46;;;;;;;;;;;;;;;;;;8383740;28;27802;-75
2022/04/23 12:52:46;;;;;;;;;;;;;;;;;;8382678;28;28482;-75
2022/04/23 12:56:46;;;;;;;;;;;;;;;;;;8384904;28;28660;-75
2022/04/23 13:00:47;;;;;;;;;;;;;;;;;;8388278;28;28262;-74
2022/04/23 13:04:47;;;;;;;;;;;;;;;;;;8383070;27;27665;-75
2022/04/23 13:09:05;;;;;;;;;;;;;;;;;;8389952;28;28585;-75
2022/04/23 13:13:08;;;;;;;;;;;;;;;;;;8389197;28;28675;-75
2022/04/23 13:17:08;;;;;;;;;;;;;;;;;;8382304;28;28063;-75
2022/04/23 13:21:08;;;;;;;;;;;;;;;;;;8386223;27;28003;-75
2022/04/23 13:25:08;;;;;;;;;;;;;;;;;;8385550;28;27991;-75
2022/04/23 13:29:09;;;;;;;;;;;;;;;;;;8388559;28;27594;-75
2022/04/23 13:33:09;;;;;;;;;;;;;;;;;;8379936;28;28157;-75
2022/04/23 13:37:09;;;;;;;;;;;;;;;;;;8387342;28;28411;-75
2022/04/23 13:41:11;;;;;;;;;;;;;;;;;;8383470;28;28172;-75
2022/04/23 13:45:12;;;;;;;;;;;;;;;;;;8384382;28;27898;-75
2022/04/23 13:49:14;;;;;;;;;;;;;;;;;;8388729;28;27489;-75
2022/04/23 13:53:14;;;;;;;;;;;;;;;;;;8378106;28;28491;-75
2022/04/23 13:57:15;;;;;;;;;;;;;;;;;;8383683;28;29896;-75
2022/04/23 14:01:15;;;;;;;;;;;;;;;;;;8383658;28;28781;-75
2022/04/23 14:14:09;;;;;;;;;;;;;;;;;;8352220;28;27942;-75
2022/04/23 14:18:11;;;;;;;;;;;;;;;;;;8407155;27;27237;-74
2022/04/23 14:22:12;;;;;;;;;;;;;;;;;;8386214;28;28222;-75
2022/04/23 14:26:14;;;;;;;;;;;;;;;;;;8387198;27;28088;-75
2022/04/23 14:30:14;;;;;;;;;;;;;;;;;;8385495;28;27282;-75
2022/04/23 14:34:14;;;;;;;;;;;;;;;;;;8383960;28;27611;-75
2022/04/23 14:38:15;;;;;;;;;;;;;;;;;;8381890;27;28717;-75
2022/04/23 14:42:15;;;;;;;;;;;;;;;;;;8378047;28;27668;-75
2022/04/23 14:46:15;;;;;;;;;;;;;;;;;;8372082;28;28177;-74
2022/04/23 14:50:16;;;;;;;;;;;;;;;;;;8377878;28;27127;-75
2022/04/23 14:54:16;;;;;;;;;;;;;;;;;;8377978;28;27939;-75
2022/04/23 14:58:17;;;;;;;;;;;;;;;;;;8383705;28;28181;-75
2022/04/23 15:02:17;;;;;;;;;;;;;;;;;;8381944;27;27953;-75
2022/04/23 15:06:18;;;;;;;;;;;;;;;;;;8373605;28;27995;-75
2022/04/23 15:10:19;;;;;;;;;;;;;;;;;;8376262;28;27483;-75
2022/04/23 15:14:19;;;;;;;;;;;;;;;;;;8381872;28;29102;-75
2022/04/23 15:18:19;;;;;;;;;;;;;;;;;;8380125;27;27583;-75
2022/04/23 15:22:19;;;;;;;;;;;;;;;;;;8386577;28;27265;-75
2022/04/23 15:26:21;;;;;;;;;;;;;;;;;;8381624;28;28085;-74
2022/04/23 15:30:23;;;;;;;;;;;;;;;;;;8414259;27;28339;-74
2022/04/23 15:34:23;;;;;;;;;;;;;;;;;;8382863;28;27404;-74
2022/04/23 15:38:24;;;;;;;;;;;;;;;;;;8386422;28;27651;-75
2022/04/23 15:42:24;;;;;;;;;;;;;;;;;;8386360;28;27133;-74
2022/04/23 15:46:24;;;;;;;;;;;;;;;;;;8385993;28;27807;-74
2022/04/23 15:50:25;;;;;;;;;;;;;;;;;;8395734;28;27540;-75
2022/04/23 15:54:25;;;;;;;;;;;;;;;;;;8386411;28;28254;-74
2022/04/23 15:58:27;;;;;;;;;;;;;;;;;;8390736;28;27629;-74
2022/04/23 16:02:27;;;;;;;;;;;;;;;;;;8387192;28;28257;-74
2022/04/23 16:06:28;;;;;;;;;;;;;;;;;;8390598;28;27953;-74
2022/04/23 16:10:28;;;;;;;;;;;;;;;;;;8384741;28;27320;-75
2022/04/23 16:14:28;;;;;;;;;;;;;;;;;;8385410;28;27710;-75
2022/04/23 16:18:29;;;;;;;;;;;;;;;;;;8388770;28;28416;-73
2022/04/23 16:22:30;;;;;;;;;;;;;;;;;;8382338;28;28191;-75
2022/04/23 16:26:30;;;;;;;;;;;;;;;;;;8389091;28;27846;-75
2022/04/23 16:30:31;;;;;;;;;;;;;;;;;;8388759;28;27523;-75
2022/04/23 16:34:36;;;;;;;;;;;;;;;;;;8386723;28;28275;-75
2022/04/23 16:47:14;;;;;;;;;;;;;;;;;;8383099;28;27138;-75
2022/04/23 16:51:14;;;;;;;;;;;;;;;;;;8418198;27;28432;-75
2022/04/23 16:55:15;;;;;;;;;;;;;;;;;;8413738;27;28420;-75
2022/04/23 16:59:15;;;;;;;;;;;;;;;;;;8382041;28;28356;-74
2022/04/23 17:03:15;;;;;;;;;;;;;;;;;;8385636;28;28771;-75
2022/04/23 17:07:15;;;;;;;;;;;;;;;;;;8384127;28;27477;-74
2022/04/23 17:11:15;;;;;;;;;;;;;;;;;;8387603;28;27221;-74
2022/04/23 17:15:15;;;;;;;;;;;;;;;;;;8386126;28;28799;-75
2022/04/23 17:19:16;;;;;;;;;;;;;;;;;;8388761;28;27230;-75
2022/04/23 17:23:16;;;;;;;;;;;;;;;;;;8386668;28;27670;-74
2022/04/23 17:27:16;;;;;;;;;;;;;;;;;;8387458;28;27590;-73
2022/04/23 17:31:16;;;;;;;;;;;;;;;;;;8384275;28;28328;-74
2022/04/23 17:35:19;;;;;;;;;;;;;;;;;;8383902;28;27489;-75
2022/04/23 17:39:21;;;;;;;;;;;;;;;;;;8389897;28;28648;-73
2022/04/23 17:43:21;;;;;;;;;;;;;;;;;;8381526;28;28574;-74
2022/04/23 17:47:21;;;;;;;;;;;;;;;;;;8382448;28;28236;-75
2022/04/23 17:51:22;;;;;;;;;;;;;;;;;;8383322;28;27378;-75
2022/04/23 17:55:22;;;;;;;;;;;;;;;;;;8385646;28;28546;-74
2022/04/23 17:59:22;;;;;;;;;;;;;;;;;;8417369;27;28348;-74
2022/04/23 18:07:41;;;;;;;;;;;;;;;;;;8383698;28;27479;-74
2022/04/23 18:11:41;;;;;;;;;;;;;;;;;;8385121;28;27183;-75
2022/04/23 18:15:44;;;;;;;;;;;;;;;;;;8384769;28;28062;-75
2022/04/23 18:19:47;;;;;;;;;;;;;;;;;;8383198;28;28502;-75
2022/04/23 18:23:47;;;;;;;;;;;;;;;;;;8388603;28;27631;-74
2022/04/23 18:27:47;;;;;;;;;;;;;;;;;;8383395;28;28206;-74
2022/04/23 18:31:52;;;;;;;;;;;;;;;;;;8415590;27;28291;-74
2022/04/23 18:35:52;;;;;;;;;;;;;;;;;;8384172;28;27375;-73
2022/04/23 18:39:52;;;;;;;;;;;;;;;;;;8384653;28;28829;-73
2022/04/23 18:43:52;;;;;;;;;;;;;;;;;;8381468;28;27467;-73
2022/04/23 18:47:52;;;;;;;;;;;;;;;;;;8382742;28;27501;-73
2022/04/23 18:51:52;;;;;;;;;;;;;;;;;;8386020;27;28087;-73
2022/04/23 18:55:52;;;;;;;;;;;;;;;;;;8423444;27;28604;-74
2022/04/23 18:59:53;;;;;;;;;;;;;;;;;;8389958;28;27514;-74
2022/04/23 19:03:53;;;;;;;;;;;;;;;;;;8386550;28;28408;-74
2022/04/23 19:07:53;;;;;;;;;;;;;;;;;;8388344;28;28268;-74
2022/04/23 19:11:53;;;;;;;;;;;;;;;;;;8389931;28;28084;-74
2022/04/23 19:15:53;;;;;;;;;;;;;;;;;;8385633;28;28325;-74
2022/04/23 19:19:53;;;;;;;;;;;;;;;;;;8383264;28;27559;-73
2022/04/23 19:28:13;;;;;;;;;;;;;;;;;;8384878;28;27535;-73
2022/04/23 19:32:17;;;;;;;;;;;;;;;;;;8389369;28;27268;-73
2022/04/23 19:36:17;;;;;;;;;;;;;;;;;;8382602;28;27264;-73
2022/04/23 19:40:20;;;;;;;;;;;;;;;;;;8391566;28;27714;-73
2022/04/23 19:44:20;;;;;;;;;;;;;;;;;;8384003;28;27836;-73
2022/04/23 19:48:20;;;;;;;;;;;;;;;;;;8385379;28;27585;-73
2022/04/23 19:52:20;;;;;;;;;;;;;;;;;;8420625;27;28989;-73
2022/04/23 19:56:20;;;;;;;;;;;;;;;;;;8385481;28;28499;-73
2022/04/23 20:00:21;;;;;;;;;;;;;;;;;;8388806;28;28466;-73
2022/04/23 20:04:23;;;;;;;;;;;;;;;;;;8386221;28;27333;-73
2022/04/23 20:08:23;;;;;;;;;;;;;;;;;;8382964;28;27400;-73
2022/04/23 20:12:23;;;;;;;;;;;;;;;;;;8385010;28;28456;-73
2022/04/23 20:16:23;;;;;;;;;;;;;;;;;;8386034;28;27168;-72
2022/04/23 20:20:24;;;;;;;;;;;;;;;;;;8389851;28;28474;-72
2022/04/23 20:24:24;;;;;;;;;;;;;;;;;;8389494;28;27710;-73
2022/04/23 20:29:04;;;;;;;;;;;;;;;;;;8382041;28;27678;-73
2022/04/23 20:32:44;;;;;;;;;;;;;;;;;;8388553;27;27395;-72
2022/04/23 20:41:03;;;;;;;;;;;;;;;;;;8378717;28;27325;-73
2022/04/23 20:45:06;;;;;;;;;;;;;;;;;;8382132;28;28330;-73
2022/04/23 20:49:06;;;;;;;;;;;;;;;;;;8380132;28;27325;-73
2022/04/23 20:53:16;;;;;;;;;;;;;;;;;;8378348;28;27942;-73
2022/04/23 20:57:16;;;;;;;;;;;;;;;;;;8377851;28;27384;-73
2022/04/23 21:01:16;;;;;;;;;;;;;;;;;;8410544;27;28645;-73
2022/04/23 21:05:16;;;;;;;;;;;;;;;;;;8375912;28;28001;-73
2022/04/23 21:09:16;;;;;;;;;;;;;;;;;;8380922;27;28175;-73
2022/04/23 21:13:16;;;;;;;;;;;;;;;;;;8342256;27;28186;-73
2022/04/23 21:17:17;;;;;;;;;;;;;;;;;;8333821;28;27426;-73
2022/04/23 21:21:17;;;;;;;;;;;;;;;;;;8341383;28;27360;-73
2022/04/23 21:25:19;;;;;;;;;;;;;;;;;;8358376;28;29648;-73
2022/04/23 21:29:20;;;;;;;;;;;;;;;;;;8339087;28;27212;-73
2022/04/23 21:33:20;;;;;;;;;;;;;;;;;;8343988;28;27722;-73
2022/04/23 21:37:20;;;;;;;;;;;;;;;;;;8343893;28;27898;-73
2022/04/23 21:45:39;;;;;;;;;;;;;;;;;;8338819;28;27795;-73
2022/04/23 21:49:39;;;;;;;;;;;;;;;;;;8343758;28;27536;-73
2022/04/23 21:53:39;;;;;;;;;;;;;;;;;;8339096;28;27320;-73
2022/04/23 21:57:39;;;;;;;;;;;;;;;;;;8340424;28;27868;-73
2022/04/23 22:01:40;;;;;;;;;;;;;;;;;;8346170;28;27357;-73
2022/04/23 22:05:40;;;;;;;;;;;;;;;;;;8345846;28;28350;-73
2022/04/23 22:09:40;;;;;;;;;;;;;;;;;;8348214;28;27980;-73
2022/04/23 22:13:40;;;;;;;;;;;;;;;;;;8343346;28;27463;-73
2022/04/23 22:17:40;;;;;;;;;;;;;;;;;;8343125;28;27537;-73
2022/04/23 22:21:40;;;;;;;;;;;;;;;;;;8345042;28;27776;-73
2022/04/23 22:25:40;;;;;;;;;;;;;;;;;;8340796;28;27632;-73
2022/04/23 22:29:40;;;;;;;;;;;;;;;;;;8347861;28;27244;-73
2022/04/23 22:33:41;;;;;;;;;;;;;;;;;;8341862;28;27251;-73
2022/04/23 22:37:41;;;;;;;;;;;;;;;;;;8344412;28;27649;-73
2022/04/23 22:41:43;;;;;;;;;;;;;;;;;;8348247;28;27324;-72
2022/04/23 22:45:43;;;;;;;;;;;;;;;;;;8343791;28;29488;-73
2022/04/23 22:49:43;;;;;;;;;;;;;;;;;;8346262;28;27421;-72
2022/04/23 22:53:43;;;;;;;;;;;;;;;;;;8345729;28;27389;-73
2022/04/23 22:57:43;;;;;;;;;;;;;;;;;;8343262;28;28074;-73
2022/04/23 23:01:44;;;;;;;;;;;;;;;;;;8345153;28;27144;-73
2022/04/23 23:05:44;;;;;;;;;;;;;;;;;;8343047;28;28256;-73
2022/04/23 23:09:44;;;;;;;;;;;;;;;;;;8349187;28;28172;-73
2022/04/23 23:13:44;;;;;;;;;;;;;;;;;;8347298;28;27597;-73
2022/04/23 23:17:44;;;;;;;;;;;;;;;;;;8342833;28;28418;-73
2022/04/23 23:21:44;;;;;;;;;;;;;;;;;;8345536;28;27433;-73
2022/04/23 23:25:45;;;;;;;;;;;;;;;;;;8335619;28;27237;-73
2022/04/23 23:29:45;;;;;;;;;;;;;;;;;;8341427;28;27521;-73
2022/04/23 23:33:46;;;;;;;;;;;;;;;;;;8347520;28;27261;-73
2022/04/23 23:37:46;;;;;;;;;;;;;;;;;;8344338;28;28265;-73
2022/04/23 23:41:46;;;;;;;;;;;;;;;;;;8343860;28;27356;-73
2022/04/23 23:45:46;;;;;;;;;;;;;;;;;;8349945;28;27345;-73
2022/04/23 23:49:46;;;;;;;;;;;;;;;;;;8348070;28;27972;-73
2022/04/23 23:53:46;;;;;;;;;;;;;;;;;;8344816;28;27185;-72
2022/04/23 23:57:49;;;;;;;;;;;;;;;;;;8345020;28;28626;-73
